Time;durP1;ratioP1;P1;durP2;ratioP2;P2;SDS_P1;SDS_P2;PMS_P1;PMS_P2;Temp;Humidity;BMP_temperature;BMP_pressure;BME280_temperature;BME280_humidity;BME280_pressure;Samples;Min_cycle;Max_cycle;Signal;HPM_P1;HPM_P2
2023/05/30 00:00:53;;;;;;;;;;;;;;;;;;5051990;28;19943;-76
2023/05/30 00:03:20;;;;;;;;;;;;;;;;;;5052792;28;19944;-77
2023/05/30 00:05:46;;;;;;;;;;;;;;;;;;5053081;28;19921;-76
2023/05/30 00:08:13;;;;;;;;;;;;;;;;;;5053076;28;19920;-76
2023/05/30 00:10:40;;;;;;;;;;;;;;;;;;5055327;28;19920;-76
2023/05/30 00:13:06;;;;;;;;;;;;;;;;;;5056406;28;19927;-76
2023/05/30 00:15:33;;;;;;;;;;;;;;;;;;5055049;28;19924;-76
2023/05/30 00:18:00;;;;;;;;;;;;;;;;;;5056745;28;20397;-77
2023/05/30 00:20:30;;;;;;;;;;;;;;;;;;5056750;28;20281;-76
2023/05/30 00:22:57;;;;;;;;;;;;;;;;;;5056802;28;20385;-76
2023/05/30 00:25:24;;;;;;;;;;;;;;;;;;5056730;28;20285;-77
2023/05/30 00:27:50;;;;;;;;;;;;;;;;;;5056540;28;19921;-77
2023/05/30 00:30:17;;;;;;;;;;;;;;;;;;5053755;28;19921;-76
2023/05/30 00:32:43;;;;;;;;;;;;;;;;;;5055785;28;20289;-77
2023/05/30 00:35:10;;;;;;;;;;;;;;;;;;5056780;28;19928;-77
2023/05/30 00:37:36;;;;;;;;;;;;;;;;;;5056682;28;20381;-76
2023/05/30 00:40:04;;;;;;;;;;;;;;;;;;5055342;28;19925;-77
2023/05/30 00:42:30;;;;;;;;;;;;;;;;;;5056166;28;20404;-76
2023/05/30 00:44:57;;;;;;;;;;;;;;;;;;5055135;28;19928;-77
2023/05/30 00:47:23;;;;;;;;;;;;;;;;;;5056052;28;19920;-77
2023/05/30 00:49:50;;;;;;;;;;;;;;;;;;5055960;28;20290;-76
2023/05/30 00:52:17;;;;;;;;;;;;;;;;;;5056085;28;19921;-76
2023/05/30 00:54:44;;;;;;;;;;;;;;;;;;5055652;28;19920;-76
2023/05/30 00:57:10;;;;;;;;;;;;;;;;;;5055960;28;19920;-77
2023/05/30 00:59:37;;;;;;;;;;;;;;;;;;5054902;28;19920;-77
2023/05/30 01:02:03;;;;;;;;;;;;;;;;;;5055725;28;19920;-79
2023/05/30 01:04:32;;;;;;;;;;;;;;;;;;5055410;28;19921;-79
2023/05/30 01:07:01;;;;;;;;;;;;;;;;;;5055265;28;19921;-79
2023/05/30 01:09:28;;;;;;;;;;;;;;;;;;5055384;28;19921;-79
2023/05/30 01:11:54;;;;;;;;;;;;;;;;;;5055460;28;20389;-79
2023/05/30 01:14:21;;;;;;;;;;;;;;;;;;5054263;28;19920;-79
2023/05/30 01:16:51;;;;;;;;;;;;;;;;;;5055649;28;19930;-78
2023/05/30 01:19:17;;;;;;;;;;;;;;;;;;5052983;28;19928;-80
2023/05/30 01:21:44;;;;;;;;;;;;;;;;;;5054212;28;20400;-79
2023/05/30 01:24:12;;;;;;;;;;;;;;;;;;5055518;28;19928;-78
2023/05/30 01:26:38;;;;;;;;;;;;;;;;;;5055654;28;19920;-79
2023/05/30 01:29:05;;;;;;;;;;;;;;;;;;5053171;28;19921;-79
2023/05/30 01:31:31;;;;;;;;;;;;;;;;;;5055142;28;19921;-79
2023/05/30 01:33:58;;;;;;;;;;;;;;;;;;5054877;28;19921;-79
2023/05/30 01:36:24;;;;;;;;;;;;;;;;;;5055590;28;19929;-79
2023/05/30 01:38:51;;;;;;;;;;;;;;;;;;5054992;28;19921;-79
2023/05/30 01:41:17;;;;;;;;;;;;;;;;;;5055430;28;19921;-80
2023/05/30 01:43:44;;;;;;;;;;;;;;;;;;5054309;28;19940;-80
2023/05/30 01:46:10;;;;;;;;;;;;;;;;;;5053630;28;19920;-80
2023/05/30 01:48:37;;;;;;;;;;;;;;;;;;5054862;28;19927;-79
2023/05/30 01:51:03;;;;;;;;;;;;;;;;;;5055064;28;20290;-79
2023/05/30 01:53:30;;;;;;;;;;;;;;;;;;5054414;28;19921;-80
2023/05/30 01:55:59;;;;;;;;;;;;;;;;;;5054940;28;19920;-79
2023/05/30 01:58:25;;;;;;;;;;;;;;;;;;5054399;28;19943;-79
2023/05/30 02:00:52;;;;;;;;;;;;;;;;;;5054373;28;19928;-78
2023/05/30 02:03:18;;;;;;;;;;;;;;;;;;5054801;28;19920;-79
2023/05/30 02:05:45;;;;;;;;;;;;;;;;;;5054649;28;19927;-79
2023/05/30 02:08:11;;;;;;;;;;;;;;;;;;5054642;28;20401;-80
2023/05/30 02:10:38;;;;;;;;;;;;;;;;;;5054405;28;19943;-79
2023/05/30 02:13:04;;;;;;;;;;;;;;;;;;5054181;28;19927;-79
2023/05/30 02:15:31;;;;;;;;;;;;;;;;;;5053347;28;19928;-76
2023/05/30 02:17:59;;;;;;;;;;;;;;;;;;5054429;28;20289;-76
2023/05/30 02:20:27;;;;;;;;;;;;;;;;;;5054578;28;20317;-79
2023/05/30 02:22:53;;;;;;;;;;;;;;;;;;5054437;28;19920;-79
2023/05/30 02:25:20;;;;;;;;;;;;;;;;;;5054376;28;20349;-79
2023/05/30 02:27:49;;;;;;;;;;;;;;;;;;5053971;28;20366;-80
2023/05/30 02:30:15;;;;;;;;;;;;;;;;;;5052560;28;19943;-78
2023/05/30 02:32:42;;;;;;;;;;;;;;;;;;5053288;28;19920;-79
2023/05/30 02:35:08;;;;;;;;;;;;;;;;;;5054151;28;20294;-79
2023/05/30 02:37:35;;;;;;;;;;;;;;;;;;5053986;28;19920;-79
2023/05/30 02:40:01;;;;;;;;;;;;;;;;;;5054026;28;19920;-79
2023/05/30 02:42:28;;;;;;;;;;;;;;;;;;5054086;28;19936;-79
2023/05/30 02:44:54;;;;;;;;;;;;;;;;;;5052604;28;20302;-80
2023/05/30 02:47:21;;;;;;;;;;;;;;;;;;5053705;28;19921;-79
2023/05/30 02:49:47;;;;;;;;;;;;;;;;;;5053745;28;19921;-76
2023/05/30 02:52:14;;;;;;;;;;;;;;;;;;5053166;28;19925;-76
2023/05/30 02:54:40;;;;;;;;;;;;;;;;;;5053723;28;19920;-77
2023/05/30 02:57:07;;;;;;;;;;;;;;;;;;5053813;28;19920;-76
2023/05/30 02:59:33;;;;;;;;;;;;;;;;;;5049488;28;19943;-76
2023/05/30 03:02:00;;;;;;;;;;;;;;;;;;5053362;28;19920;-76
2023/05/30 03:04:26;;;;;;;;;;;;;;;;;;5053599;28;19988;-76
2023/05/30 03:06:53;;;;;;;;;;;;;;;;;;5053674;28;19924;-76
2023/05/30 03:09:20;;;;;;;;;;;;;;;;;;5053556;28;19921;-76
2023/05/30 03:11:46;;;;;;;;;;;;;;;;;;5053678;28;20384;-77
2023/05/30 03:14:13;;;;;;;;;;;;;;;;;;5051466;28;19921;-76
2023/05/30 03:16:40;;;;;;;;;;;;;;;;;;5053721;28;19928;-75
2023/05/30 03:19:07;;;;;;;;;;;;;;;;;;5053180;28;19921;-76
2023/05/30 03:21:34;;;;;;;;;;;;;;;;;;5053510;28;19924;-75
2023/05/30 03:24:00;;;;;;;;;;;;;;;;;;5053524;28;19928;-76
2023/05/30 03:26:27;;;;;;;;;;;;;;;;;;5053515;28;20389;-74
2023/05/30 03:28:53;;;;;;;;;;;;;;;;;;5051962;28;19925;-75
2023/05/30 03:31:20;;;;;;;;;;;;;;;;;;5053551;28;19939;-75
2023/05/30 03:33:46;;;;;;;;;;;;;;;;;;5053150;28;20338;-75
2023/05/30 03:36:13;;;;;;;;;;;;;;;;;;5053421;28;19925;-75
2023/05/30 03:38:40;;;;;;;;;;;;;;;;;;5053702;28;19991;-75
2023/05/30 03:41:06;;;;;;;;;;;;;;;;;;5053777;28;20292;-75
2023/05/30 03:43:33;;;;;;;;;;;;;;;;;;5052418;28;20200;-75
2023/05/30 03:45:59;;;;;;;;;;;;;;;;;;5056945;28;20289;-75
2023/05/30 03:48:26;;;;;;;;;;;;;;;;;;5057239;28;19925;-75
2023/05/30 03:50:52;;;;;;;;;;;;;;;;;;5057241;28;19928;-76
2023/05/30 03:53:19;;;;;;;;;;;;;;;;;;5056592;28;19921;-75
2023/05/30 03:55:45;;;;;;;;;;;;;;;;;;5057186;28;19921;-75
2023/05/30 03:58:12;;;;;;;;;;;;;;;;;;5055676;28;19920;-75
2023/05/30 04:00:38;;;;;;;;;;;;;;;;;;5057720;28;19921;-76
2023/05/30 04:03:05;;;;;;;;;;;;;;;;;;5057045;28;19921;-76
2023/05/30 04:05:31;;;;;;;;;;;;;;;;;;5057588;28;19921;-75
2023/05/30 04:07:58;;;;;;;;;;;;;;;;;;5056487;28;20396;-75
2023/05/30 04:10:25;;;;;;;;;;;;;;;;;;5057217;28;19921;-76
2023/05/30 04:12:54;;;;;;;;;;;;;;;;;;5055819;28;19920;-76
2023/05/30 04:15:21;;;;;;;;;;;;;;;;;;5055655;28;19921;-75
2023/05/30 04:17:48;;;;;;;;;;;;;;;;;;5057097;28;19928;-75
2023/05/30 04:20:15;;;;;;;;;;;;;;;;;;5056798;28;20254;-76
2023/05/30 04:22:43;;;;;;;;;;;;;;;;;;5055674;28;19921;-75
2023/05/30 04:25:09;;;;;;;;;;;;;;;;;;5056541;28;19929;-76
2023/05/30 04:27:36;;;;;;;;;;;;;;;;;;5056145;28;19920;-77
2023/05/30 04:30:04;;;;;;;;;;;;;;;;;;5053712;28;19921;-76
2023/05/30 04:32:33;;;;;;;;;;;;;;;;;;5052007;28;19944;-76
2023/05/30 04:35:00;;;;;;;;;;;;;;;;;;5036417;28;19943;-76
2023/05/30 04:37:27;;;;;;;;;;;;;;;;;;5051049;28;19925;-76
2023/05/30 04:39:55;;;;;;;;;;;;;;;;;;5056255;28;19925;-76
2023/05/30 04:42:24;;;;;;;;;;;;;;;;;;5056125;28;19921;-75
2023/05/30 04:44:51;;;;;;;;;;;;;;;;;;5054557;28;20370;-76
2023/05/30 04:47:17;;;;;;;;;;;;;;;;;;5056182;28;19920;-76
2023/05/30 04:49:45;;;;;;;;;;;;;;;;;;5055490;28;19925;-75
2023/05/30 04:52:11;;;;;;;;;;;;;;;;;;5056056;28;19920;-76
2023/05/30 04:54:38;;;;;;;;;;;;;;;;;;5055446;28;19921;-76
2023/05/30 04:57:04;;;;;;;;;;;;;;;;;;5055544;28;19925;-76
2023/05/30 04:59:31;;;;;;;;;;;;;;;;;;5054661;28;19921;-76
2023/05/30 05:01:57;;;;;;;;;;;;;;;;;;5056453;28;19920;-76
2023/05/30 05:04:24;;;;;;;;;;;;;;;;;;5056518;28;19925;-76
2023/05/30 05:06:50;;;;;;;;;;;;;;;;;;5054960;28;19921;-76
2023/05/30 05:09:18;;;;;;;;;;;;;;;;;;5056421;28;19921;-77
2023/05/30 05:11:44;;;;;;;;;;;;;;;;;;5056611;28;20374;-76
2023/05/30 05:14:11;;;;;;;;;;;;;;;;;;5053222;28;19921;-77
2023/05/30 05:16:37;;;;;;;;;;;;;;;;;;5045125;28;19929;-76
2023/05/30 05:19:04;;;;;;;;;;;;;;;;;;5056824;28;19947;-76
2023/05/30 05:21:30;;;;;;;;;;;;;;;;;;5056931;28;20301;-78
2023/05/30 05:23:57;;;;;;;;;;;;;;;;;;5056851;28;19921;-76
2023/05/30 05:26:24;;;;;;;;;;;;;;;;;;5056671;28;19920;-76
2023/05/30 05:28:51;;;;;;;;;;;;;;;;;;5052982;28;19948;-77
2023/05/30 05:31:17;;;;;;;;;;;;;;;;;;5050145;28;19932;-76
2023/05/30 05:33:44;;;;;;;;;;;;;;;;;;5051295;28;19921;-77
2023/05/30 05:36:10;;;;;;;;;;;;;;;;;;5050931;28;19921;-76
2023/05/30 05:38:37;;;;;;;;;;;;;;;;;;5052535;28;19936;-77
2023/05/30 05:41:03;;;;;;;;;;;;;;;;;;5053620;28;19920;-80
2023/05/30 05:43:30;;;;;;;;;;;;;;;;;;5054682;28;19935;-78
2023/05/30 05:45:56;;;;;;;;;;;;;;;;;;5054886;28;19921;-79
2023/05/30 05:48:23;;;;;;;;;;;;;;;;;;5054890;28;19936;-76
2023/05/30 05:50:50;;;;;;;;;;;;;;;;;;5051419;28;19921;-80
2023/05/30 05:53:16;;;;;;;;;;;;;;;;;;5054344;28;19927;-78
2023/05/30 05:55:44;;;;;;;;;;;;;;;;;;5055115;28;19921;-78
2023/05/30 05:58:11;;;;;;;;;;;;;;;;;;5047272;28;19925;-77
2023/05/30 06:00:37;;;;;;;;;;;;;;;;;;5054706;28;19921;-76
2023/05/30 06:03:04;;;;;;;;;;;;;;;;;;5052951;28;20378;-77
2023/05/30 06:05:30;;;;;;;;;;;;;;;;;;5053209;28;19921;-77
2023/05/30 06:07:58;;;;;;;;;;;;;;;;;;5053439;28;19921;-77
2023/05/30 06:10:24;;;;;;;;;;;;;;;;;;5054456;28;19921;-77
2023/05/30 06:12:51;;;;;;;;;;;;;;;;;;5049062;28;19936;-77
2023/05/30 06:15:17;;;;;;;;;;;;;;;;;;5050491;28;19928;-78
2023/05/30 06:17:44;;;;;;;;;;;;;;;;;;5059537;28;20270;-75
2023/05/30 06:20:10;;;;;;;;;;;;;;;;;;5061364;28;19921;-76
2023/05/30 06:22:40;;;;;;;;;;;;;;;;;;5051744;28;19928;-75
2023/05/30 06:25:07;;;;;;;;;;;;;;;;;;5054369;28;19920;-75
2023/05/30 06:27:33;;;;;;;;;;;;;;;;;;5051999;28;19928;-75
2023/05/30 06:30:00;;;;;;;;;;;;;;;;;;5052531;28;19920;-75
2023/05/30 06:32:26;;;;;;;;;;;;;;;;;;5052533;28;19925;-75
2023/05/30 06:34:53;;;;;;;;;;;;;;;;;;5052035;28;19927;-78
2023/05/30 06:37:19;;;;;;;;;;;;;;;;;;5050088;28;19921;-73
2023/05/30 06:39:46;;;;;;;;;;;;;;;;;;5051813;28;19925;-73
2023/05/30 06:42:14;;;;;;;;;;;;;;;;;;5046382;28;19920;-77
2023/05/30 06:44:40;;;;;;;;;;;;;;;;;;5049435;28;19928;-77
2023/05/30 06:47:08;;;;;;;;;;;;;;;;;;5047696;28;19921;-78
2023/05/30 06:49:34;;;;;;;;;;;;;;;;;;5047005;28;20354;-77
2023/05/30 06:52:01;;;;;;;;;;;;;;;;;;5050065;28;19935;-77
2023/05/30 06:54:29;;;;;;;;;;;;;;;;;;5048174;28;19936;-78
2023/05/30 06:57:00;;;;;;;;;;;;;;;;;;5049021;28;19925;-87
2023/05/30 06:59:26;;;;;;;;;;;;;;;;;;5051174;28;20290;-86
2023/05/30 07:01:53;;;;;;;;;;;;;;;;;;5049770;28;19921;-86
2023/05/30 07:04:19;;;;;;;;;;;;;;;;;;5053841;28;19921;-87
2023/05/30 07:06:46;;;;;;;;;;;;;;;;;;5050774;28;19932;-87
2023/05/30 07:09:12;;;;;;;;;;;;;;;;;;5053981;28;19928;-86
2023/05/30 07:11:39;;;;;;;;;;;;;;;;;;5051171;28;19929;-82
2023/05/30 07:14:06;;;;;;;;;;;;;;;;;;5050759;28;19925;-87
2023/05/30 07:16:32;;;;;;;;;;;;;;;;;;5052195;28;19921;-86
2023/05/30 07:18:59;;;;;;;;;;;;;;;;;;5050931;28;19928;-86
2023/05/30 07:21:28;;;;;;;;;;;;;;;;;;5049811;28;19921;-86
2023/05/30 07:23:54;;;;;;;;;;;;;;;;;;5052629;28;19925;-86
2023/05/30 07:26:21;;;;;;;;;;;;;;;;;;5053862;28;20267;-87
2023/05/30 07:28:47;;;;;;;;;;;;;;;;;;5051460;28;19935;-87
2023/05/30 07:31:15;;;;;;;;;;;;;;;;;;5050195;28;19936;-87
2023/05/30 07:33:41;;;;;;;;;;;;;;;;;;5054474;28;19921;-87
2023/05/30 07:36:08;;;;;;;;;;;;;;;;;;5048353;28;19921;-87
2023/05/30 07:38:34;;;;;;;;;;;;;;;;;;5053889;28;19929;-87
2023/05/30 07:41:01;;;;;;;;;;;;;;;;;;5054303;28;20293;-86
2023/05/30 07:43:27;;;;;;;;;;;;;;;;;;5049208;28;20539;-87
2023/05/30 07:45:54;;;;;;;;;;;;;;;;;;5052022;28;19921;-87
2023/05/30 07:48:20;;;;;;;;;;;;;;;;;;5052081;28;20405;-89
2023/05/30 07:50:47;;;;;;;;;;;;;;;;;;5054938;28;19941;-89
2023/05/30 07:53:14;;;;;;;;;;;;;;;;;;5055422;28;19920;-89
2023/05/30 07:55:40;;;;;;;;;;;;;;;;;;5053900;28;19921;-85
2023/05/30 07:58:07;;;;;;;;;;;;;;;;;;5051675;28;19991;-85
2023/05/30 08:00:33;;;;;;;;;;;;;;;;;;5044278;28;20293;-85
2023/05/30 08:03:00;;;;;;;;;;;;;;;;;;5052642;28;19920;-87
2023/05/30 08:05:26;;;;;;;;;;;;;;;;;;5053805;28;19925;-84
2023/05/30 08:07:53;;;;;;;;;;;;;;;;;;5053913;28;19920;-87
2023/05/30 08:10:19;;;;;;;;;;;;;;;;;;5053641;28;19927;-85
2023/05/30 08:12:46;;;;;;;;;;;;;;;;;;5050814;28;19929;-87
2023/05/30 08:15:12;;;;;;;;;;;;;;;;;;5052610;28;19928;-88
2023/05/30 08:17:40;;;;;;;;;;;;;;;;;;5050204;28;19928;-86
2023/05/30 08:20:08;;;;;;;;;;;;;;;;;;5052457;28;19921;-86
2023/05/30 08:22:36;;;;;;;;;;;;;;;;;;5051856;28;19921;-86
2023/05/30 08:25:03;;;;;;;;;;;;;;;;;;5046579;28;19928;-87
2023/05/30 08:27:31;;;;;;;;;;;;;;;;;;5054790;28;20555;-88
2023/05/30 08:29:59;;;;;;;;;;;;;;;;;;5051586;28;19920;-86
2023/05/30 08:32:27;;;;;;;;;;;;;;;;;;5057238;28;19932;-88
2023/05/30 08:34:53;;;;;;;;;;;;;;;;;;5057115;28;19987;-85
2023/05/30 08:37:20;;;;;;;;;;;;;;;;;;5058625;28;19944;-90
2023/05/30 08:39:46;;;;;;;;;;;;;;;;;;5055198;28;19932;-87
2023/05/30 08:42:13;;;;;;;;;;;;;;;;;;5056942;28;19921;-88
2023/05/30 08:44:40;;;;;;;;;;;;;;;;;;5059424;28;19927;-88
2023/05/30 08:47:07;;;;;;;;;;;;;;;;;;5058916;28;19921;-88
2023/05/30 08:49:34;;;;;;;;;;;;;;;;;;5058116;28;19928;-88
2023/05/30 08:52:00;;;;;;;;;;;;;;;;;;5055481;28;19927;-88
2023/05/30 08:54:27;;;;;;;;;;;;;;;;;;5055362;28;19930;-86
2023/05/30 08:56:53;;;;;;;;;;;;;;;;;;5058307;28;19920;-88
2023/05/30 08:59:25;;;;;;;;;;;;;;;;;;5058904;28;19920;-84
2023/05/30 09:01:51;;;;;;;;;;;;;;;;;;5056391;28;19936;-85
2023/05/30 09:04:18;;;;;;;;;;;;;;;;;;5057888;28;20267;-87
2023/05/30 09:06:45;;;;;;;;;;;;;;;;;;5057177;28;20392;-89
2023/05/30 09:09:13;;;;;;;;;;;;;;;;;;5055187;28;19921;-81
2023/05/30 09:11:39;;;;;;;;;;;;;;;;;;5058098;28;19927;-88
2023/05/30 09:14:06;;;;;;;;;;;;;;;;;;5056442;28;20026;-88
2023/05/30 09:16:32;;;;;;;;;;;;;;;;;;5056817;28;19921;-87
2023/05/30 09:18:59;;;;;;;;;;;;;;;;;;5058629;28;20258;-87
2023/05/30 09:21:25;;;;;;;;;;;;;;;;;;5051296;28;19928;-87
2023/05/30 09:23:52;;;;;;;;;;;;;;;;;;5049554;28;19921;-88
2023/05/30 09:26:18;;;;;;;;;;;;;;;;;;5049353;28;19920;-87
2023/05/30 09:28:45;;;;;;;;;;;;;;;;;;5052952;28;19921;-84
2023/05/30 09:31:11;;;;;;;;;;;;;;;;;;5051265;28;19921;-89
2023/05/30 09:33:38;;;;;;;;;;;;;;;;;;5050179;28;19916;-89
2023/05/30 09:36:04;;;;;;;;;;;;;;;;;;5057035;28;19920;-89
2023/05/30 09:38:31;;;;;;;;;;;;;;;;;;5057683;28;19921;-87
2023/05/30 09:40:57;;;;;;;;;;;;;;;;;;5049553;28;20317;-87
2023/05/30 09:43:24;;;;;;;;;;;;;;;;;;5054808;28;19920;-86
2023/05/30 09:45:50;;;;;;;;;;;;;;;;;;5053911;28;19936;-88
2023/05/30 09:48:17;;;;;;;;;;;;;;;;;;5053165;28;19936;-89
2023/05/30 09:50:44;;;;;;;;;;;;;;;;;;5056270;28;20297;-88
2023/05/30 09:53:10;;;;;;;;;;;;;;;;;;5049235;28;19928;-88
2023/05/30 09:55:38;;;;;;;;;;;;;;;;;;5051451;28;19925;-88
2023/05/30 09:58:05;;;;;;;;;;;;;;;;;;5055492;28;19921;-88
2023/05/30 10:00:32;;;;;;;;;;;;;;;;;;5051115;28;20394;-89
2023/05/30 10:02:58;;;;;;;;;;;;;;;;;;5056983;28;19921;-88
2023/05/30 10:05:25;;;;;;;;;;;;;;;;;;5052229;28;19928;-88
2023/05/30 10:07:51;;;;;;;;;;;;;;;;;;5054465;28;19927;-84
2023/05/30 10:10:18;;;;;;;;;;;;;;;;;;5052632;28;19920;-79
2023/05/30 10:12:44;;;;;;;;;;;;;;;;;;5051707;28;19924;-80
2023/05/30 10:15:11;;;;;;;;;;;;;;;;;;5051338;28;19920;-81
2023/05/30 10:17:38;;;;;;;;;;;;;;;;;;5052554;28;19956;-83
2023/05/30 10:20:06;;;;;;;;;;;;;;;;;;5048880;28;19921;-84
2023/05/30 10:22:35;;;;;;;;;;;;;;;;;;5046812;28;19920;-85
2023/05/30 10:25:02;;;;;;;;;;;;;;;;;;5049659;28;19921;-79
2023/05/30 10:27:28;;;;;;;;;;;;;;;;;;5052464;28;19921;-81
2023/05/30 10:29:55;;;;;;;;;;;;;;;;;;5051498;28;19921;-82
2023/05/30 10:32:21;;;;;;;;;;;;;;;;;;5043640;28;19921;-75
2023/05/30 10:34:48;;;;;;;;;;;;;;;;;;5051156;28;20957;-76
2023/05/30 10:37:15;;;;;;;;;;;;;;;;;;5050741;28;19920;-75
2023/05/30 10:39:41;;;;;;;;;;;;;;;;;;5043948;28;20382;-75
2023/05/30 10:42:08;;;;;;;;;;;;;;;;;;5045256;28;19928;-76
2023/05/30 10:44:34;;;;;;;;;;;;;;;;;;5046753;28;19920;-77
2023/05/30 10:47:01;;;;;;;;;;;;;;;;;;5052243;28;20293;-83
2023/05/30 10:49:27;;;;;;;;;;;;;;;;;;5057691;28;19921;-83
2023/05/30 10:51:54;;;;;;;;;;;;;;;;;;5055389;28;19921;-82
2023/05/30 10:54:21;;;;;;;;;;;;;;;;;;5053792;28;20397;-80
2023/05/30 10:56:47;;;;;;;;;;;;;;;;;;5051890;28;19940;-79
2023/05/30 10:59:14;;;;;;;;;;;;;;;;;;5050739;28;19921;-79
2023/05/30 11:01:40;;;;;;;;;;;;;;;;;;5051966;28;19921;-79
2023/05/30 11:04:07;;;;;;;;;;;;;;;;;;5052232;28;19940;-80
2023/05/30 11:06:34;;;;;;;;;;;;;;;;;;5052366;28;19927;-83
2023/05/30 11:09:01;;;;;;;;;;;;;;;;;;5051246;28;20420;-80
2023/05/30 11:11:27;;;;;;;;;;;;;;;;;;5051823;28;19935;-79
2023/05/30 11:13:56;;;;;;;;;;;;;;;;;;5052894;28;19928;-82
2023/05/30 11:16:23;;;;;;;;;;;;;;;;;;5045158;28;19905;-82
2023/05/30 11:18:51;;;;;;;;;;;;;;;;;;5054675;28;19920;-81
2023/05/30 11:21:17;;;;;;;;;;;;;;;;;;5045772;28;19929;-82
2023/05/30 11:23:44;;;;;;;;;;;;;;;;;;5049108;28;19924;-83
2023/05/30 11:26:11;;;;;;;;;;;;;;;;;;5065717;28;19904;-81
2023/05/30 11:28:37;;;;;;;;;;;;;;;;;;5050328;28;19924;-85
2023/05/30 11:31:07;;;;;;;;;;;;;;;;;;5050067;28;19928;-83
2023/05/30 11:33:33;;;;;;;;;;;;;;;;;;5047282;28;19920;-87
2023/05/30 11:36:00;;;;;;;;;;;;;;;;;;5045053;28;20306;-88
2023/05/30 11:38:28;;;;;;;;;;;;;;;;;;5050241;28;19931;-87
2023/05/30 11:40:54;;;;;;;;;;;;;;;;;;5046130;28;19921;-88
2023/05/30 11:43:21;;;;;;;;;;;;;;;;;;5054728;28;19920;-89
2023/05/30 11:45:49;;;;;;;;;;;;;;;;;;5054044;28;19963;-87
2023/05/30 11:48:16;;;;;;;;;;;;;;;;;;5054716;28;19927;-87
2023/05/30 11:50:46;;;;;;;;;;;;;;;;;;5052236;28;19928;-88
2023/05/30 11:53:15;;;;;;;;;;;;;;;;;;5050560;28;19928;-86
2023/05/30 11:55:42;;;;;;;;;;;;;;;;;;5051157;28;19928;-85
2023/05/30 11:58:08;;;;;;;;;;;;;;;;;;5051534;28;19931;-85
2023/05/30 12:00:35;;;;;;;;;;;;;;;;;;5050423;28;19921;-89
2023/05/30 12:03:02;;;;;;;;;;;;;;;;;;5054179;28;20392;-87
2023/05/30 12:05:29;;;;;;;;;;;;;;;;;;5055811;28;19925;-87
2023/05/30 12:07:56;;;;;;;;;;;;;;;;;;5050337;28;19927;-87
2023/05/30 12:10:23;;;;;;;;;;;;;;;;;;5047547;28;19921;-87
2023/05/30 12:12:52;;;;;;;;;;;;;;;;;;5049916;28;19921;-87
2023/05/30 12:15:18;;;;;;;;;;;;;;;;;;5052351;28;19925;-87
2023/05/30 12:17:45;;;;;;;;;;;;;;;;;;5055200;28;19928;-86
2023/05/30 12:20:12;;;;;;;;;;;;;;;;;;5055378;28;19921;-84
2023/05/30 12:22:38;;;;;;;;;;;;;;;;;;5058134;28;20400;-87
2023/05/30 12:25:05;;;;;;;;;;;;;;;;;;5057943;28;20404;-87
2023/05/30 12:27:31;;;;;;;;;;;;;;;;;;5056027;28;19922;-86
2023/05/30 12:30:00;;;;;;;;;;;;;;;;;;5051436;28;19924;-84
2023/05/30 12:32:28;;;;;;;;;;;;;;;;;;5053747;28;19924;-84
2023/05/30 12:34:54;;;;;;;;;;;;;;;;;;5055683;28;19921;-83
2023/05/30 12:37:21;;;;;;;;;;;;;;;;;;5054766;28;19921;-84
2023/05/30 12:39:48;;;;;;;;;;;;;;;;;;5049195;28;19931;-85
2023/05/30 12:42:14;;;;;;;;;;;;;;;;;;5045914;28;19921;-85
2023/05/30 12:44:43;;;;;;;;;;;;;;;;;;5048152;28;19921;-84
2023/05/30 12:47:10;;;;;;;;;;;;;;;;;;5051664;28;19928;-85
2023/05/30 12:49:37;;;;;;;;;;;;;;;;;;5052815;28;19920;-83
2023/05/30 12:52:04;;;;;;;;;;;;;;;;;;5054022;28;19921;-84
2023/05/30 12:54:30;;;;;;;;;;;;;;;;;;5053362;28;20262;-84
2023/05/30 12:57:01;;;;;;;;;;;;;;;;;;5054551;28;19943;-84
2023/05/30 12:59:30;;;;;;;;;;;;;;;;;;5051870;28;19932;-84
2023/05/30 13:01:57;;;;;;;;;;;;;;;;;;5049802;28;20385;-86
2023/05/30 13:04:23;;;;;;;;;;;;;;;;;;5046703;28;20310;-84
2023/05/30 13:06:50;;;;;;;;;;;;;;;;;;5054436;28;19928;-84
2023/05/30 13:09:18;;;;;;;;;;;;;;;;;;5055269;28;20000;-80
2023/05/30 13:11:44;;;;;;;;;;;;;;;;;;5054760;28;19921;-80
2023/05/30 13:14:11;;;;;;;;;;;;;;;;;;5053227;28;19928;-82
2023/05/30 13:16:37;;;;;;;;;;;;;;;;;;5052484;28;19928;-82
2023/05/30 13:19:04;;;;;;;;;;;;;;;;;;5046645;28;20290;-76
2023/05/30 13:21:30;;;;;;;;;;;;;;;;;;5048793;28;19921;-79
2023/05/30 13:23:58;;;;;;;;;;;;;;;;;;5054987;28;19920;-78
2023/05/30 13:26:25;;;;;;;;;;;;;;;;;;5053969;28;20388;-79
2023/05/30 13:28:51;;;;;;;;;;;;;;;;;;5048892;28;19921;-79
2023/05/30 13:31:20;;;;;;;;;;;;;;;;;;5052903;28;19924;-79
2023/05/30 13:33:48;;;;;;;;;;;;;;;;;;5047202;28;19921;-80
2023/05/30 13:36:14;;;;;;;;;;;;;;;;;;5048372;28;20401;-81
2023/05/30 13:38:42;;;;;;;;;;;;;;;;;;5054442;28;19920;-86
2023/05/30 13:41:09;;;;;;;;;;;;;;;;;;5054984;28;19924;-84
2023/05/30 13:43:35;;;;;;;;;;;;;;;;;;5055336;28;19955;-86
2023/05/30 13:46:02;;;;;;;;;;;;;;;;;;5055599;28;19921;-83
2023/05/30 13:48:29;;;;;;;;;;;;;;;;;;5054052;28;19925;-80
2023/05/30 13:50:55;;;;;;;;;;;;;;;;;;5055485;28;19928;-85
2023/05/30 13:53:22;;;;;;;;;;;;;;;;;;5056245;28;19936;-84
2023/05/30 13:55:49;;;;;;;;;;;;;;;;;;5045813;28;19937;-83
2023/05/30 13:58:15;;;;;;;;;;;;;;;;;;5044202;28;19921;-84
2023/05/30 14:00:42;;;;;;;;;;;;;;;;;;5049862;28;20373;-80
2023/05/30 14:03:09;;;;;;;;;;;;;;;;;;5054048;28;19928;-81
2023/05/30 14:05:36;;;;;;;;;;;;;;;;;;5053325;28;19920;-83
2023/05/30 14:08:04;;;;;;;;;;;;;;;;;;5053357;28;19925;-82
2023/05/30 14:10:31;;;;;;;;;;;;;;;;;;5055144;28;19944;-87
2023/05/30 14:12:57;;;;;;;;;;;;;;;;;;5051997;28;19928;-84
2023/05/30 14:15:28;;;;;;;;;;;;;;;;;;5051626;28;21460;-84
2023/05/30 14:17:56;;;;;;;;;;;;;;;;;;5053616;28;19928;-81
2023/05/30 14:20:23;;;;;;;;;;;;;;;;;;5046590;28;19920;-85
2023/05/30 14:22:49;;;;;;;;;;;;;;;;;;5053469;28;19946;-78
2023/05/30 14:25:16;;;;;;;;;;;;;;;;;;5052330;28;20274;-77
2023/05/30 14:27:43;;;;;;;;;;;;;;;;;;5051532;28;19921;-78
2023/05/30 14:30:12;;;;;;;;;;;;;;;;;;5050364;28;19932;-79
2023/05/30 14:32:39;;;;;;;;;;;;;;;;;;5046321;28;19927;-79
2023/05/30 14:35:05;;;;;;;;;;;;;;;;;;5052920;28;19924;-79
2023/05/30 14:37:32;;;;;;;;;;;;;;;;;;5044477;28;19929;-80
2023/05/30 14:39:59;;;;;;;;;;;;;;;;;;5046501;28;19920;-79
2023/05/30 14:42:26;;;;;;;;;;;;;;;;;;5049291;28;19921;-79
2023/05/30 14:44:53;;;;;;;;;;;;;;;;;;5051676;28;20286;-80
2023/05/30 14:50:00;;;;;;;;;;;;;;;;;;5052508;28;19928;-78
2023/05/30 14:52:26;;;;;;;;;;;;;;;;;;5049592;28;19927;-79
2023/05/30 14:54:53;;;;;;;;;;;;;;;;;;5040613;28;19928;-79
2023/05/30 14:57:20;;;;;;;;;;;;;;;;;;5053043;28;20293;-78
2023/05/30 14:59:46;;;;;;;;;;;;;;;;;;5041419;28;19921;-78
2023/05/30 15:02:13;;;;;;;;;;;;;;;;;;5038080;28;20385;-79
2023/05/30 15:04:39;;;;;;;;;;;;;;;;;;5055764;28;19921;-79
2023/05/30 15:07:06;;;;;;;;;;;;;;;;;;5053129;28;19921;-78
2023/05/30 15:09:33;;;;;;;;;;;;;;;;;;5053461;28;19921;-78
2023/05/30 15:12:00;;;;;;;;;;;;;;;;;;5048352;28;19927;-78
2023/05/30 15:14:27;;;;;;;;;;;;;;;;;;5047540;28;19924;-79
2023/05/30 15:16:53;;;;;;;;;;;;;;;;;;5046566;28;20338;-79
2023/05/30 15:19:20;;;;;;;;;;;;;;;;;;5047639;28;19927;-77
2023/05/30 15:21:47;;;;;;;;;;;;;;;;;;5051277;28;19965;-76
2023/05/30 15:24:13;;;;;;;;;;;;;;;;;;5053925;28;19921;-81
2023/05/30 15:26:40;;;;;;;;;;;;;;;;;;5051082;28;19921;-76
2023/05/30 15:29:09;;;;;;;;;;;;;;;;;;5047546;28;19932;-75
2023/05/30 15:31:37;;;;;;;;;;;;;;;;;;5049923;28;19921;-75
2023/05/30 15:34:04;;;;;;;;;;;;;;;;;;5051012;28;20712;-74
2023/05/30 15:36:30;;;;;;;;;;;;;;;;;;5047932;28;19943;-76
2023/05/30 15:38:57;;;;;;;;;;;;;;;;;;5045014;28;19921;-78
2023/05/30 15:41:23;;;;;;;;;;;;;;;;;;5045680;28;20294;-77
2023/05/30 15:43:50;;;;;;;;;;;;;;;;;;5059740;28;19921;-76
2023/05/30 15:46:17;;;;;;;;;;;;;;;;;;5052580;28;20266;-79
2023/05/30 15:48:44;;;;;;;;;;;;;;;;;;5057397;28;19920;-78
2023/05/30 15:51:10;;;;;;;;;;;;;;;;;;5057294;28;19921;-79
2023/05/30 15:53:39;;;;;;;;;;;;;;;;;;5057150;28;20293;-78
2023/05/30 15:56:06;;;;;;;;;;;;;;;;;;5057682;28;19927;-79
2023/05/30 15:58:33;;;;;;;;;;;;;;;;;;5055433;28;19988;-78
2023/05/30 16:01:00;;;;;;;;;;;;;;;;;;5056955;28;19921;-78
2023/05/30 16:03:26;;;;;;;;;;;;;;;;;;5056735;28;19920;-78
2023/05/30 16:05:53;;;;;;;;;;;;;;;;;;5056657;28;20297;-78
2023/05/30 16:08:19;;;;;;;;;;;;;;;;;;5057026;28;19921;-78
2023/05/30 16:10:46;;;;;;;;;;;;;;;;;;5056987;28;19924;-78
2023/05/30 16:13:12;;;;;;;;;;;;;;;;;;5056504;28;19943;-78
2023/05/30 16:15:39;;;;;;;;;;;;;;;;;;5055985;28;19928;-77
2023/05/30 16:18:06;;;;;;;;;;;;;;;;;;5054608;28;19921;-77
2023/05/30 16:20:32;;;;;;;;;;;;;;;;;;5056799;28;19932;-78
2023/05/30 16:22:59;;;;;;;;;;;;;;;;;;5055750;28;19929;-78
2023/05/30 16:25:26;;;;;;;;;;;;;;;;;;5056686;28;19928;-78
2023/05/30 16:27:52;;;;;;;;;;;;;;;;;;5056519;28;19921;-78
2023/05/30 16:30:20;;;;;;;;;;;;;;;;;;5056684;28;19927;-78
2023/05/30 16:32:46;;;;;;;;;;;;;;;;;;5056269;28;19921;-79
2023/05/30 16:35:13;;;;;;;;;;;;;;;;;;5056222;28;20373;-79
2023/05/30 16:37:39;;;;;;;;;;;;;;;;;;5056550;28;19927;-79
2023/05/30 16:42:49;;;;;;;;;;;;;;;;;;5050125;28;19917;-79
2023/05/30 16:45:16;;;;;;;;;;;;;;;;;;5037119;28;20298;-79
2023/05/30 16:47:42;;;;;;;;;;;;;;;;;;5036357;28;19924;-79